createdAt,value
2022-11-28T00:01:27.115Z,8.50
2022-11-28T00:03:54.081Z,8.50
2022-11-28T00:06:21.351Z,8.60
2022-11-28T00:08:48.643Z,8.60
2022-11-28T00:11:17.294Z,8.60
2022-11-28T00:13:44.876Z,8.60
2022-11-28T00:16:17.103Z,8.50
2022-11-28T00:18:44.385Z,8.40
2022-11-28T00:21:13.176Z,8.40
2022-11-28T00:23:41.022Z,8.50
2022-11-28T00:26:19.740Z,8.40
2022-11-28T00:28:46.734Z,8.30
2022-11-28T00:31:18.813Z,8.20
2022-11-28T00:33:45.810Z,8.20
2022-11-28T00:36:13.353Z,8.40
2022-11-28T00:38:40.715Z,8.40
2022-11-28T00:41:22.172Z,8.40
2022-11-28T00:43:50.151Z,8.30
2022-11-28T00:46:19.283Z,8.40
2022-11-28T00:48:46.756Z,8.40
2022-11-28T00:51:22.247Z,8.20
2022-11-28T00:53:51.130Z,8.20
2022-11-28T00:56:20.584Z,8.30
2022-11-28T00:58:50.351Z,8.40
2022-11-28T01:01:20.790Z,8.20
2022-11-28T01:03:49.138Z,8.00
2022-11-28T01:06:25.927Z,8.30
2022-11-28T01:08:52.933Z,8.30
2022-11-28T01:11:20.412Z,8.20
2022-11-28T01:13:47.783Z,8.30
2022-11-28T01:16:14.688Z,8.30
2022-11-28T01:18:41.553Z,8.30
2022-11-28T01:21:08.795Z,8.20
2022-11-28T01:23:36.769Z,8.10
2022-11-28T01:26:05.448Z,8.00
2022-11-28T01:28:32.360Z,8.00
2022-11-28T01:31:09.872Z,8.00
2022-11-28T01:33:36.682Z,8.00
2022-11-28T01:36:04.612Z,8.10
2022-11-28T01:38:32.059Z,8.00
2022-11-28T01:40:58.811Z,8.00
2022-11-28T01:43:25.618Z,8.10
2022-11-28T01:45:53.082Z,8.10
2022-11-28T01:48:26.943Z,8.10
2022-11-28T01:50:58.615Z,8.00
2022-11-28T01:53:29.201Z,7.90
2022-11-28T01:56:05.890Z,8.00
2022-11-28T01:58:36.599Z,8.00
2022-11-28T02:01:04.593Z,8.10
2022-11-28T02:03:40.732Z,8.00
2022-11-28T02:06:08.191Z,8.10
2022-11-28T02:08:35.635Z,8.10
2022-11-28T02:11:24.269Z,7.90
2022-11-28T02:14:24.872Z,7.90
2022-11-28T02:17:15.596Z,7.90
2022-11-28T02:20:04.529Z,8.00
2022-11-28T02:23:03.475Z,8.10
2022-11-28T02:25:54.244Z,8.20
2022-11-28T02:28:50.013Z,8.00
2022-11-28T02:31:41.233Z,8.10
2022-11-28T02:34:19.474Z,7.90
2022-11-28T02:37:03.332Z,7.90
2022-11-28T02:39:59.607Z,7.90
2022-11-28T02:42:38.769Z,7.90
2022-11-28T02:45:13.720Z,7.80
2022-11-28T02:47:48.037Z,7.80
2022-11-28T02:50:32.529Z,7.90
2022-11-28T02:53:14.562Z,7.80
2022-11-28T02:55:43.636Z,7.90
2022-11-28T02:58:11.940Z,7.90
2022-11-28T03:00:41.205Z,7.80
2022-11-28T03:03:17.740Z,7.80
2022-11-28T03:06:05.798Z,7.80
2022-11-28T03:08:54.257Z,7.80
2022-11-28T03:12:03.521Z,7.80
2022-11-28T03:14:39.311Z,7.90
2022-11-28T03:17:27.752Z,7.80
2022-11-28T03:20:05.466Z,7.90
2022-11-28T03:22:44.918Z,7.90
2022-11-28T03:25:20.548Z,7.90
2022-11-28T03:28:28.580Z,8.00
2022-11-28T03:31:05.433Z,8.00
2022-11-28T03:33:36.464Z,8.00
2022-11-28T03:36:08.571Z,8.00
2022-11-28T03:38:40.022Z,7.90
2022-11-28T03:41:19.427Z,7.90
2022-11-28T03:43:57.904Z,8.00
2022-11-28T03:46:31.261Z,7.80
2022-11-28T03:49:00.703Z,7.80
2022-11-28T03:51:34.177Z,7.90
2022-11-28T03:54:08.376Z,7.90
2022-11-28T03:56:53.602Z,8.10
2022-11-28T03:59:26.474Z,8.10
2022-11-28T04:02:27.267Z,8.10
2022-11-28T04:05:15.076Z,8.10
2022-11-28T04:08:17.385Z,8.00
2022-11-28T04:10:50.838Z,8.20
2022-11-28T04:13:20.795Z,8.20
2022-11-28T04:15:59.362Z,8.10
2022-11-28T04:18:28.912Z,8.10
2022-11-28T04:21:07.307Z,8.00
2022-11-28T04:23:35.719Z,8.00
2022-11-28T04:26:08.892Z,7.90
2022-11-28T04:28:37.569Z,7.90
2022-11-28T04:31:07.383Z,7.90
2022-11-28T04:33:38.687Z,7.80
2022-11-28T04:36:08.388Z,7.90
2022-11-28T04:38:36.322Z,7.90
2022-11-28T04:41:12.101Z,7.90
2022-11-28T04:43:53.505Z,7.90
2022-11-28T04:46:27.552Z,8.00
2022-11-28T04:48:54.410Z,8.00
2022-11-28T04:51:44.703Z,8.00
2022-11-28T04:54:47.561Z,8.10
2022-11-28T04:57:19.182Z,8.00
2022-11-28T04:59:47.311Z,8.00
2022-11-28T05:02:16.240Z,8.00
2022-11-28T05:04:43.877Z,7.90
2022-11-28T05:07:10.951Z,8.00
2022-11-28T05:09:38.443Z,8.20
2022-11-28T05:12:05.837Z,8.20
2022-11-28T05:14:32.856Z,8.00
2022-11-28T05:16:59.624Z,8.00
2022-11-28T05:19:26.465Z,8.00
2022-11-28T05:21:53.599Z,8.10
2022-11-28T05:24:22.383Z,8.10
2022-11-28T05:26:49.510Z,8.20
2022-11-28T05:29:16.659Z,8.20
2022-11-28T05:31:43.494Z,8.30
2022-11-28T05:34:10.221Z,8.30
2022-11-28T05:36:36.973Z,8.30
2022-11-28T05:39:03.899Z,8.30
2022-11-28T05:41:32.353Z,8.30
2022-11-28T05:44:00.398Z,8.40
2022-11-28T05:46:27.885Z,8.40
2022-11-28T05:48:54.946Z,8.40
2022-11-28T05:51:21.819Z,8.30
2022-11-28T05:53:48.571Z,8.30
2022-11-28T05:56:17.432Z,8.40
2022-11-28T05:58:44.778Z,8.50
2022-11-28T06:01:20.269Z,8.50
2022-11-28T06:03:47.396Z,8.50
2022-11-28T06:06:17.621Z,8.50
2022-11-28T06:08:45.536Z,8.60
2022-11-28T06:11:14.871Z,8.50
2022-11-28T06:13:43.004Z,8.50
2022-11-28T06:16:12.384Z,8.40
2022-11-28T06:18:40.015Z,8.40
2022-11-28T06:21:08.874Z,8.40
2022-11-28T06:23:36.312Z,8.40
2022-11-28T06:26:11.636Z,8.30
2022-11-28T06:28:39.205Z,8.20
2022-11-28T06:31:13.979Z,8.30
2022-11-28T06:33:41.491Z,8.30
2022-11-28T06:36:09.890Z,8.30
2022-11-28T06:38:36.902Z,8.40
2022-11-28T06:41:07.076Z,8.50
2022-11-28T06:43:34.138Z,8.40
2022-11-28T06:46:01.021Z,8.40
2022-11-28T06:48:28.566Z,8.40
2022-11-28T06:51:01.514Z,8.30
2022-11-28T06:53:31.437Z,8.20
2022-11-28T06:55:58.646Z,8.20
2022-11-28T06:58:25.462Z,8.30
2022-11-28T07:00:52.247Z,8.30
2022-11-28T07:03:19.027Z,8.40
2022-11-28T07:05:45.810Z,8.50
2022-11-28T07:08:12.601Z,8.60
2022-11-28T07:10:39.395Z,8.40
2022-11-28T07:13:06.148Z,8.30
2022-11-28T07:15:33.623Z,8.50
2022-11-28T07:18:01.048Z,8.60
2022-11-28T07:20:27.785Z,8.50
2022-11-28T07:22:54.629Z,8.50
2022-11-28T07:25:21.339Z,8.70
2022-11-28T07:27:48.142Z,8.70
2022-11-28T07:30:15.014Z,8.70
2022-11-28T07:32:42.026Z,8.80
2022-11-28T07:35:09.085Z,8.70
2022-11-28T07:37:36.369Z,9.00
2022-11-28T07:40:04.403Z,9.10
2022-11-28T07:42:31.198Z,9.20
2022-11-28T07:44:57.944Z,9.10
2022-11-28T07:47:24.688Z,9.10
2022-11-28T07:49:51.644Z,8.90
2022-11-28T07:52:18.396Z,9.00
2022-11-28T07:54:45.185Z,9.10
2022-11-28T07:57:13.228Z,9.00
2022-11-28T07:59:40.889Z,8.90
2022-11-28T08:02:10.759Z,8.70
2022-11-28T08:04:41.306Z,8.70
2022-11-28T08:07:13.727Z,8.60
2022-11-28T08:09:40.877Z,8.80
2022-11-28T08:12:08.051Z,8.60
2022-11-28T08:14:34.811Z,8.60
2022-11-28T08:17:02.027Z,8.80
2022-11-28T08:19:33.828Z,8.70
2022-11-28T08:22:02.155Z,8.60
2022-11-28T08:24:29.004Z,8.60
2022-11-28T08:26:55.721Z,8.60
2022-11-28T08:29:22.468Z,8.60
2022-11-28T08:31:49.208Z,8.70
2022-11-28T08:34:16.132Z,8.70
2022-11-28T08:36:43.638Z,8.70
2022-11-28T08:39:26.767Z,8.60
2022-11-28T08:41:57.787Z,8.60
2022-11-28T08:44:25.076Z,8.60
2022-11-28T08:46:52.648Z,8.70
2022-11-28T08:49:19.701Z,8.70
2022-11-28T08:51:46.652Z,8.60
2022-11-28T08:54:13.484Z,8.60
2022-11-28T08:56:40.195Z,8.70
2022-11-28T08:59:07.374Z,8.80
2022-11-28T09:01:34.685Z,8.80
2022-11-28T09:04:01.663Z,8.70
2022-11-28T09:06:28.719Z,8.80
2022-11-28T09:08:55.617Z,8.90
2022-11-28T09:11:23.340Z,8.90
2022-11-28T09:13:50.649Z,8.90
2022-11-28T09:16:18.345Z,8.90
2022-11-28T09:18:45.203Z,9.00
2022-11-28T09:21:13.960Z,9.00
2022-11-28T09:23:42.547Z,8.90
2022-11-28T09:26:15.631Z,8.80
2022-11-28T09:28:42.967Z,9.00
2022-11-28T09:31:10.179Z,8.90
2022-11-28T09:33:37.027Z,8.90
2022-11-28T09:36:08.491Z,8.80
2022-11-28T09:38:35.797Z,9.00
2022-11-28T09:41:21.633Z,9.10
2022-11-28T09:43:54.697Z,9.00
2022-11-28T09:46:26.452Z,8.90
2022-11-28T09:48:58.238Z,8.90
2022-11-28T09:51:51.068Z,8.90
2022-11-28T09:54:21.928Z,9.00
2022-11-28T09:56:50.336Z,8.90
2022-11-28T09:59:24.621Z,8.90
2022-11-28T10:02:17.802Z,8.90
2022-11-28T10:04:53.198Z,9.10
2022-11-28T10:07:28.725Z,9.20
2022-11-28T10:10:28.883Z,9.10
2022-11-28T10:13:41.335Z,9.10
2022-11-28T10:16:29.373Z,9.10
2022-11-28T10:19:01.544Z,9.10
2022-11-28T10:21:36.234Z,9.20
2022-11-28T10:24:20.693Z,9.10
2022-11-28T10:27:01.014Z,9.20
2022-11-28T10:29:39.605Z,9.20
2022-11-28T10:32:07.629Z,9.00
2022-11-28T10:34:40.620Z,9.30
2022-11-28T10:37:14.468Z,9.40
2022-11-28T10:39:48.373Z,9.20
2022-11-28T10:42:45.012Z,9.20
2022-11-28T10:45:17.343Z,9.50
2022-11-28T10:48:37.283Z,9.40
2022-11-28T10:51:04.733Z,9.60
2022-11-28T10:54:08.175Z,9.60
2022-11-28T10:56:46.877Z,9.50
2022-11-28T10:59:30.910Z,9.50
2022-11-28T11:01:59.677Z,9.50
2022-11-28T11:04:27.808Z,9.40
2022-11-28T11:07:27.960Z,9.30
2022-11-28T11:10:19.543Z,9.30
2022-11-28T11:12:47.290Z,9.30
2022-11-28T11:15:30.184Z,9.40
2022-11-28T11:17:58.458Z,9.40
2022-11-28T11:20:32.088Z,9.50
2022-11-28T11:23:16.807Z,9.50
2022-11-28T11:25:58.621Z,9.50
2022-11-28T11:28:48.475Z,9.40
2022-11-28T11:31:28.170Z,9.50
2022-11-28T11:34:06.654Z,9.50
2022-11-28T11:36:36.494Z,9.40
2022-11-28T11:39:12.451Z,9.40
2022-11-28T11:41:41.650Z,9.30
2022-11-28T11:44:14.214Z,9.30
2022-11-28T11:46:55.842Z,9.40
2022-11-28T11:49:28.442Z,9.50
2022-11-28T11:52:25.782Z,9.60
2022-11-28T11:54:58.708Z,9.60
2022-11-28T11:57:37.943Z,9.60
2022-11-28T12:00:29.660Z,9.60
2022-11-28T12:02:59.216Z,9.50
2022-11-28T12:08:53.351Z,9.60
2022-11-28T12:11:24.178Z,9.50
2022-11-28T12:13:51.636Z,9.40
2022-11-28T12:16:46.272Z,9.50
2022-11-28T12:19:33.051Z,9.50
2022-11-28T12:22:16.437Z,9.50
2022-11-28T12:25:08.476Z,9.40
2022-11-28T12:28:26.815Z,9.60
2022-11-28T12:31:15.405Z,9.50
2022-11-28T12:33:48.068Z,9.50
2022-11-28T12:36:53.631Z,9.60
2022-11-28T12:39:45.383Z,9.70
2022-11-28T12:42:39.842Z,9.70
2022-11-28T12:45:26.356Z,9.70
2022-11-28T12:48:22.634Z,9.50
2022-11-28T12:51:12.549Z,9.40
2022-11-28T12:54:01.207Z,9.50
2022-11-28T12:56:34.261Z,9.50
2022-11-28T12:59:07.912Z,9.50
2022-11-28T13:01:47.795Z,9.80
2022-11-28T13:04:46.138Z,9.80
2022-11-28T13:07:44.341Z,10.00
2022-11-28T13:10:24.500Z,9.90
2022-11-28T13:13:16.303Z,9.90
2022-11-28T13:15:57.815Z,9.90
2022-11-28T13:18:52.642Z,9.90
2022-11-28T13:21:47.095Z,9.80
2022-11-28T13:24:29.649Z,9.60
2022-11-28T13:27:13.624Z,9.60
2022-11-28T13:30:03.790Z,9.70
2022-11-28T13:33:15.159Z,9.70
2022-11-28T13:35:44.023Z,9.70
2022-11-28T13:41:28.497Z,10.10
2022-11-28T13:44:29.623Z,10.40
2022-11-28T13:46:56.762Z,10.30
2022-11-28T13:49:27.513Z,10.40
2022-11-28T13:52:19.066Z,10.30
2022-11-28T13:54:55.848Z,10.50
2022-11-28T13:57:30.198Z,10.20
2022-11-28T14:00:22.556Z,10.00
2022-11-28T14:02:54.973Z,9.90
2022-11-28T14:05:32.473Z,10.00
2022-11-28T14:08:00.684Z,9.90
2022-11-28T14:10:56.810Z,9.90
2022-11-28T14:13:37.498Z,10.10
2022-11-28T14:16:28.317Z,10.40
2022-11-28T14:19:01.859Z,10.10
2022-11-28T14:21:37.438Z,10.00
2022-11-28T14:24:42.230Z,9.90
2022-11-28T14:27:20.886Z,10.00
2022-11-28T14:29:51.144Z,9.90
2022-11-28T14:32:31.136Z,9.90
2022-11-28T14:34:58.267Z,9.80
2022-11-28T14:37:35.749Z,9.80
2022-11-28T14:40:03.812Z,9.90
2022-11-28T14:42:58.830Z,10.10
2022-11-28T14:45:32.851Z,10.20
2022-11-28T14:48:40.240Z,10.10
2022-11-28T14:51:06.994Z,10.00
2022-11-28T14:53:45.555Z,10.20
2022-11-28T14:56:15.251Z,10.20
2022-11-28T14:58:52.353Z,10.10
2022-11-28T15:01:26.992Z,10.10
2022-11-28T15:04:22.072Z,10.00
2022-11-28T15:06:50.244Z,9.90
2022-11-28T15:09:42.670Z,9.70
2022-11-28T15:12:37.477Z,9.70
2022-11-28T15:15:08.000Z,9.90
2022-11-28T15:17:35.288Z,9.90
2022-11-28T15:20:08.483Z,9.90
2022-11-28T15:22:43.178Z,9.80
2022-11-28T15:25:25.148Z,9.80
2022-11-28T15:27:53.211Z,9.80
2022-11-28T15:30:24.663Z,9.80
2022-11-28T15:32:59.648Z,9.70
2022-11-28T15:35:27.445Z,9.80
2022-11-28T15:37:57.267Z,9.90
2022-11-28T15:40:33.946Z,9.80
2022-11-28T15:43:03.958Z,9.80
2022-11-28T15:45:37.835Z,9.80
2022-11-28T15:48:04.810Z,9.60
2022-11-28T15:50:33.968Z,9.70
2022-11-28T15:53:18.256Z,9.70
2022-11-28T15:55:45.654Z,9.60
2022-11-28T15:58:30.062Z,9.50
2022-11-28T16:01:13.290Z,9.50
2022-11-28T16:04:07.645Z,9.40
2022-11-28T16:06:37.673Z,9.50
2022-11-28T16:09:26.709Z,9.60
2022-11-28T16:11:54.645Z,9.40
2022-11-28T16:14:26.807Z,9.20
2022-11-28T16:16:53.983Z,9.20
2022-11-28T16:19:31.233Z,9.30
2022-11-28T16:22:10.652Z,9.40
2022-11-28T16:24:48.279Z,9.40
2022-11-28T16:27:45.711Z,9.10
2022-11-28T16:30:31.399Z,8.90
2022-11-28T16:32:58.285Z,9.00
2022-11-28T16:35:30.947Z,8.90
2022-11-28T16:38:34.564Z,8.90
2022-11-28T16:41:01.638Z,8.70
2022-11-28T16:43:41.087Z,8.60
2022-11-28T16:46:23.624Z,8.70
2022-11-28T16:48:59.201Z,8.80
2022-11-28T16:51:26.495Z,8.90
2022-11-28T16:53:55.653Z,8.90
2022-11-28T16:56:29.842Z,9.00
2022-11-28T16:59:12.904Z,9.00
2022-11-28T17:01:41.439Z,9.00
2022-11-28T17:04:20.582Z,9.00
2022-11-28T17:06:47.714Z,9.20
2022-11-28T17:09:14.909Z,9.30
2022-11-28T17:11:45.388Z,9.50
2022-11-28T17:14:14.035Z,9.60
2022-11-28T17:16:41.942Z,9.40
2022-11-28T17:19:09.143Z,9.10
2022-11-28T17:22:05.292Z,9.10
2022-11-28T17:24:34.656Z,8.90
2022-11-28T17:27:01.502Z,8.90
2022-11-28T17:29:29.476Z,8.90
2022-11-28T17:31:59.696Z,9.00
2022-11-28T17:34:28.679Z,9.10
2022-11-28T17:36:55.472Z,9.30
2022-11-28T17:39:22.215Z,9.40
2022-11-28T17:41:51.633Z,9.30
2022-11-28T17:44:22.944Z,9.20
2022-11-28T17:46:52.100Z,9.20
2022-11-28T17:49:19.227Z,9.40
2022-11-28T17:51:46.347Z,9.70
2022-11-28T17:54:18.088Z,9.90
2022-11-28T17:56:46.323Z,9.80
2022-11-28T17:59:14.149Z,9.40
2022-11-28T18:01:41.483Z,9.10
2022-11-28T18:04:08.284Z,9.00
2022-11-28T18:06:35.656Z,8.70
2022-11-28T18:09:08.729Z,8.60
2022-11-28T18:11:39.546Z,8.60
2022-11-28T18:14:06.649Z,8.60
2022-11-28T18:16:35.569Z,8.70
2022-11-28T18:19:02.944Z,8.80
2022-11-28T18:21:29.717Z,8.80
2022-11-28T18:23:56.491Z,8.80
2022-11-28T18:26:25.044Z,8.70
2022-11-28T18:28:52.045Z,8.70
2022-11-28T18:31:23.919Z,8.90
2022-11-28T18:33:51.423Z,8.80
2022-11-28T18:36:24.663Z,8.90
2022-11-28T18:38:59.015Z,8.90
2022-11-28T18:41:26.023Z,8.80
2022-11-28T18:43:57.129Z,8.90
2022-11-28T18:46:25.260Z,8.70
2022-11-28T18:48:52.470Z,8.80
2022-11-28T18:51:21.683Z,8.70
2022-11-28T18:53:49.294Z,8.60
2022-11-28T18:56:16.620Z,8.80
2022-11-28T18:58:45.644Z,8.70
2022-11-28T19:01:30.633Z,8.70
2022-11-28T19:04:00.248Z,8.50
2022-11-28T19:06:27.811Z,8.40
2022-11-28T19:08:57.347Z,8.40
2022-11-28T19:11:24.636Z,8.40
2022-11-28T19:13:53.514Z,8.40
2022-11-28T19:16:23.317Z,8.50
2022-11-28T19:18:50.747Z,8.30
2022-11-28T19:21:20.793Z,8.10
2022-11-28T19:23:47.900Z,8.00
2022-11-28T19:26:18.098Z,7.90
2022-11-28T19:28:44.915Z,7.90
2022-11-28T19:31:15.006Z,8.00
2022-11-28T19:33:43.364Z,8.10
2022-11-28T19:36:12.627Z,8.30
2022-11-28T19:38:39.797Z,8.40
2022-11-28T19:41:12.721Z,8.40
2022-11-28T19:43:39.748Z,8.40
2022-11-28T19:46:07.468Z,8.50
2022-11-28T19:48:36.314Z,8.50
2022-11-28T19:51:03.907Z,8.60
2022-11-28T19:53:31.749Z,8.70
2022-11-28T19:56:07.375Z,8.70
2022-11-28T19:58:37.515Z,9.00
2022-11-28T20:01:08.654Z,9.30
2022-11-28T20:03:37.045Z,9.10
2022-11-28T20:06:18.601Z,9.20
2022-11-28T20:08:46.773Z,9.30
2022-11-28T20:11:18.848Z,9.20
2022-11-28T20:13:46.705Z,9.00
2022-11-28T20:16:17.685Z,8.80
2022-11-28T20:18:45.496Z,8.60
2022-11-28T20:21:13.309Z,8.40
2022-11-28T20:23:51.141Z,8.50
2022-11-28T20:26:19.489Z,8.60
2022-11-28T20:28:46.985Z,8.50
2022-11-28T20:31:22.922Z,8.40
2022-11-28T20:33:51.674Z,8.60
2022-11-28T20:36:20.454Z,8.60
2022-11-28T20:38:47.294Z,8.60
2022-11-28T20:41:15.814Z,8.50
2022-11-28T20:43:42.609Z,8.40
2022-11-28T20:46:15.859Z,8.40
2022-11-28T20:48:43.254Z,8.40
2022-11-28T20:51:12.539Z,8.50
2022-11-28T20:53:41.256Z,8.60
2022-11-28T20:56:14.094Z,8.80
2022-11-28T20:58:41.381Z,8.70
2022-11-28T21:01:08.698Z,9.10
2022-11-28T21:03:37.024Z,9.00
2022-11-28T21:06:03.802Z,9.00
2022-11-28T21:08:31.422Z,8.70
2022-11-28T21:10:58.257Z,8.40
2022-11-28T21:13:25.205Z,8.30
2022-11-28T21:15:53.513Z,8.40
2022-11-28T21:18:20.344Z,8.20
2022-11-28T21:20:47.565Z,8.20
2022-11-28T21:23:16.448Z,8.00
2022-11-28T21:25:44.504Z,8.00
2022-11-28T21:28:12.306Z,8.00
2022-11-28T21:30:41.561Z,8.00
2022-11-28T21:33:09.392Z,8.10
2022-11-28T21:35:37.016Z,8.00
2022-11-28T21:38:04.367Z,8.00
2022-11-28T21:40:31.280Z,8.30
2022-11-28T21:42:58.334Z,8.20
2022-11-28T21:45:25.332Z,8.00
2022-11-28T21:47:52.410Z,7.90
2022-11-28T21:50:19.180Z,7.70
2022-11-28T21:52:46.101Z,7.60
2022-11-28T21:55:12.901Z,7.50
2022-11-28T21:57:42.136Z,7.40
2022-11-28T22:00:25.936Z,7.40
2022-11-28T22:03:03.985Z,7.40
2022-11-28T22:05:33.678Z,7.40
2022-11-28T22:08:00.750Z,7.30
2022-11-28T22:10:27.664Z,7.50
2022-11-28T22:12:54.463Z,7.50
2022-11-28T22:15:22.091Z,7.40
2022-11-28T22:17:48.919Z,7.50
2022-11-28T22:20:15.651Z,7.60
2022-11-28T22:22:44.977Z,7.40
2022-11-28T22:25:11.746Z,7.40
2022-11-28T22:27:38.475Z,7.50
2022-11-28T22:30:06.525Z,7.40
2022-11-28T22:32:33.323Z,7.50
2022-11-28T22:35:01.428Z,7.40
2022-11-28T22:37:28.199Z,7.40
2022-11-28T22:39:54.927Z,7.30
2022-11-28T22:42:21.712Z,7.30
2022-11-28T22:44:48.633Z,7.20
2022-11-28T22:47:15.439Z,7.40
2022-11-28T22:49:42.188Z,7.40
2022-11-28T22:52:08.930Z,7.50
2022-11-28T22:54:35.676Z,7.30
2022-11-28T22:57:02.403Z,7.20
2022-11-28T22:59:30.202Z,7.30
2022-11-28T23:01:57.080Z,7.00
2022-11-28T23:04:23.902Z,6.90
2022-11-28T23:06:50.848Z,6.90
2022-11-28T23:09:17.603Z,6.80
2022-11-28T23:11:44.559Z,6.80
2022-11-28T23:14:14.045Z,6.80
2022-11-28T23:16:43.093Z,6.90
2022-11-28T23:19:16.028Z,6.80
2022-11-28T23:21:45.416Z,7.00
2022-11-28T23:24:18.174Z,6.80
2022-11-28T23:26:45.322Z,6.60
2022-11-28T23:29:12.313Z,6.50
2022-11-28T23:31:41.787Z,6.40
2022-11-28T23:34:09.857Z,6.60
2022-11-28T23:36:42.518Z,6.50
2022-11-28T23:39:15.492Z,6.40
2022-11-28T23:41:42.907Z,6.30
2022-11-28T23:44:11.552Z,6.60
2022-11-28T23:46:38.529Z,6.60
2022-11-28T23:49:06.048Z,6.60
2022-11-28T23:51:33.540Z,6.50
2022-11-28T23:54:00.415Z,6.70
2022-11-28T23:56:29.640Z,6.70
2022-11-28T23:58:57.610Z,6.80
